sensor_id;sensor_type;location;lat;lon;timestamp;temperature;humidity
59975;DHT22;62136;-35.664;-63.766;2023-04-22T00:00:02;22.00;53.60
59975;DHT22;62136;-35.664;-63.766;2023-04-22T00:02:29;22.00;53.60
59975;DHT22;62136;-35.664;-63.766;2023-04-22T00:04:57;22.00;53.60
59975;DHT22;62136;-35.664;-63.766;2023-04-22T00:07:24;21.90;53.50
59975;DHT22;62136;-35.664;-63.766;2023-04-22T00:09:51;21.90;53.40
59975;DHT22;62136;-35.664;-63.766;2023-04-22T00:12:18;21.90;53.60
59975;DHT22;62136;-35.664;-63.766;2023-04-22T00:14:46;21.90;53.50
59975;DHT22;62136;-35.664;-63.766;2023-04-22T00:17:14;21.90;53.60
59975;DHT22;62136;-35.664;-63.766;2023-04-22T00:19:41;21.80;53.50
59975;DHT22;62136;-35.664;-63.766;2023-04-22T00:22:09;21.80;53.50
59975;DHT22;62136;-35.664;-63.766;2023-04-22T00:24:36;21.80;53.50
59975;DHT22;62136;-35.664;-63.766;2023-04-22T00:27:03;21.80;53.50
59975;DHT22;62136;-35.664;-63.766;2023-04-22T00:29:30;21.80;53.50
59975;DHT22;62136;-35.664;-63.766;2023-04-22T00:31:57;21.80;53.50
59975;DHT22;62136;-35.664;-63.766;2023-04-22T00:34:24;21.80;53.60
59975;DHT22;62136;-35.664;-63.766;2023-04-22T00:36:51;21.70;53.40
59975;DHT22;62136;-35.664;-63.766;2023-04-22T00:39:18;21.70;53.40
59975;DHT22;62136;-35.664;-63.766;2023-04-22T00:41:46;21.70;53.40
59975;DHT22;62136;-35.664;-63.766;2023-04-22T00:44:13;21.70;53.40
59975;DHT22;62136;-35.664;-63.766;2023-04-22T00:46:40;21.70;53.40
59975;DHT22;62136;-35.664;-63.766;2023-04-22T00:49:08;21.70;53.50
59975;DHT22;62136;-35.664;-63.766;2023-04-22T00:51:35;21.70;53.40
59975;DHT22;62136;-35.664;-63.766;2023-04-22T00:54:02;21.60;53.40
59975;DHT22;62136;-35.664;-63.766;2023-04-22T00:56:33;21.60;53.40
59975;DHT22;62136;-35.664;-63.766;2023-04-22T00:59:04;21.60;53.40
59975;DHT22;62136;-35.664;-63.766;2023-04-22T01:01:31;21.60;53.40
59975;DHT22;62136;-35.664;-63.766;2023-04-22T01:03:58;21.60;53.50
59975;DHT22;62136;-35.664;-63.766;2023-04-22T01:06:26;21.60;53.50
59975;DHT22;62136;-35.664;-63.766;2023-04-22T01:08:55;21.60;53.40
59975;DHT22;62136;-35.664;-63.766;2023-04-22T01:11:24;21.60;53.40
59975;DHT22;62136;-35.664;-63.766;2023-04-22T01:13:52;21.60;53.50
59975;DHT22;62136;-35.664;-63.766;2023-04-22T01:16:19;21.50;53.40
59975;DHT22;62136;-35.664;-63.766;2023-04-22T01:18:46;21.50;53.40
59975;DHT22;62136;-35.664;-63.766;2023-04-22T01:21:13;21.50;53.40
59975;DHT22;62136;-35.664;-63.766;2023-04-22T01:23:41;21.50;53.40
59975;DHT22;62136;-35.664;-63.766;2023-04-22T01:26:08;21.50;53.50
59975;DHT22;62136;-35.664;-63.766;2023-04-22T01:28:35;21.50;53.40
59975;DHT22;62136;-35.664;-63.766;2023-04-22T01:31:02;21.50;53.50
59975;DHT22;62136;-35.664;-63.766;2023-04-22T01:33:30;21.50;53.80
59975;DHT22;62136;-35.664;-63.766;2023-04-22T01:35:57;21.50;53.60
59975;DHT22;62136;-35.664;-63.766;2023-04-22T01:38:24;21.40;53.50
59975;DHT22;62136;-35.664;-63.766;2023-04-22T01:40:52;21.40;53.50
59975;DHT22;62136;-35.664;-63.766;2023-04-22T01:43:22;21.40;53.60
59975;DHT22;62136;-35.664;-63.766;2023-04-22T01:45:49;21.40;53.50
59975;DHT22;62136;-35.664;-63.766;2023-04-22T01:48:16;21.40;53.50
59975;DHT22;62136;-35.664;-63.766;2023-04-22T01:50:43;21.40;53.40
59975;DHT22;62136;-35.664;-63.766;2023-04-22T01:53:10;21.30;53.50
59975;DHT22;62136;-35.664;-63.766;2023-04-22T01:55:38;21.30;53.50
59975;DHT22;62136;-35.664;-63.766;2023-04-22T01:58:05;21.30;53.50
59975;DHT22;62136;-35.664;-63.766;2023-04-22T02:00:32;21.30;53.50
59975;DHT22;62136;-35.664;-63.766;2023-04-22T02:03:03;21.30;53.50
59975;DHT22;62136;-35.664;-63.766;2023-04-22T02:05:33;21.30;53.50
59975;DHT22;62136;-35.664;-63.766;2023-04-22T02:08:00;21.30;53.50
59975;DHT22;62136;-35.664;-63.766;2023-04-22T02:10:27;21.30;53.30
59975;DHT22;62136;-35.664;-63.766;2023-04-22T02:12:54;21.20;53.40
59975;DHT22;62136;-35.664;-63.766;2023-04-22T02:15:21;21.20;53.50
59975;DHT22;62136;-35.664;-63.766;2023-04-22T02:17:48;21.20;53.50
59975;DHT22;62136;-35.664;-63.766;2023-04-22T02:20:16;21.20;53.50
59975;DHT22;62136;-35.664;-63.766;2023-04-22T02:22:43;21.20;53.50
59975;DHT22;62136;-35.664;-63.766;2023-04-22T02:25:11;21.20;53.50
59975;DHT22;62136;-35.664;-63.766;2023-04-22T02:27:39;21.20;53.50
59975;DHT22;62136;-35.664;-63.766;2023-04-22T02:30:07;21.20;53.50
59975;DHT22;62136;-35.664;-63.766;2023-04-22T02:32:38;21.20;53.50
59975;DHT22;62136;-35.664;-63.766;2023-04-22T02:35:06;21.10;53.50
59975;DHT22;62136;-35.664;-63.766;2023-04-22T02:37:33;21.10;53.50
59975;DHT22;62136;-35.664;-63.766;2023-04-22T02:40:01;21.20;53.60
59975;DHT22;62136;-35.664;-63.766;2023-04-22T02:42:29;21.10;53.60
59975;DHT22;62136;-35.664;-63.766;2023-04-22T02:44:56;21.10;53.60
59975;DHT22;62136;-35.664;-63.766;2023-04-22T02:47:23;21.10;53.60
59975;DHT22;62136;-35.664;-63.766;2023-04-22T02:49:50;21.10;53.60
59975;DHT22;62136;-35.664;-63.766;2023-04-22T02:52:17;21.10;53.60
59975;DHT22;62136;-35.664;-63.766;2023-04-22T02:54:44;21.10;53.60
59975;DHT22;62136;-35.664;-63.766;2023-04-22T02:57:11;21.10;53.60
59975;DHT22;62136;-35.664;-63.766;2023-04-22T02:59:38;21.10;53.60
59975;DHT22;62136;-35.664;-63.766;2023-04-22T03:02:05;21.00;53.80
59975;DHT22;62136;-35.664;-63.766;2023-04-22T03:04:32;21.00;53.60
59975;DHT22;62136;-35.664;-63.766;2023-04-22T03:06:59;21.00;53.70
59975;DHT22;62136;-35.664;-63.766;2023-04-22T03:09:26;21.00;53.60
59975;DHT22;62136;-35.664;-63.766;2023-04-22T03:11:55;21.00;53.70
59975;DHT22;62136;-35.664;-63.766;2023-04-22T03:14:25;21.00;53.70
59975;DHT22;62136;-35.664;-63.766;2023-04-22T03:16:52;21.00;53.60
59975;DHT22;62136;-35.664;-63.766;2023-04-22T03:19:19;21.00;53.70
59975;DHT22;62136;-35.664;-63.766;2023-04-22T03:21:49;21.00;53.60
59975;DHT22;62136;-35.664;-63.766;2023-04-22T03:24:16;21.00;53.70
59975;DHT22;62136;-35.664;-63.766;2023-04-22T03:26:47;21.00;53.70
59975;DHT22;62136;-35.664;-63.766;2023-04-22T03:29:16;20.90;53.60
59975;DHT22;62136;-35.664;-63.766;2023-04-22T03:31:44;20.90;53.70
59975;DHT22;62136;-35.664;-63.766;2023-04-22T03:34:10;20.90;53.70
59975;DHT22;62136;-35.664;-63.766;2023-04-22T03:36:38;20.90;53.60
59975;DHT22;62136;-35.664;-63.766;2023-04-22T03:39:05;20.90;53.70
59975;DHT22;62136;-35.664;-63.766;2023-04-22T03:41:32;20.90;53.70
59975;DHT22;62136;-35.664;-63.766;2023-04-22T03:43:59;20.80;53.60
59975;DHT22;62136;-35.664;-63.766;2023-04-22T03:46:26;20.80;53.70
59975;DHT22;62136;-35.664;-63.766;2023-04-22T03:48:53;20.80;53.70
59975;DHT22;62136;-35.664;-63.766;2023-04-22T03:51:20;20.80;53.60
59975;DHT22;62136;-35.664;-63.766;2023-04-22T03:53:50;20.80;53.70
59975;DHT22;62136;-35.664;-63.766;2023-04-22T03:56:20;20.80;53.70
59975;DHT22;62136;-35.664;-63.766;2023-04-22T03:58:50;20.80;53.70
59975;DHT22;62136;-35.664;-63.766;2023-04-22T04:01:17;20.80;53.70
59975;DHT22;62136;-35.664;-63.766;2023-04-22T04:03:44;20.70;53.60
59975;DHT22;62136;-35.664;-63.766;2023-04-22T04:06:11;20.70;53.70
59975;DHT22;62136;-35.664;-63.766;2023-04-22T04:08:38;20.70;53.70
59975;DHT22;62136;-35.664;-63.766;2023-04-22T04:11:07;20.70;53.70
59975;DHT22;62136;-35.664;-63.766;2023-04-22T04:13:34;20.70;53.70
59975;DHT22;62136;-35.664;-63.766;2023-04-22T04:16:01;20.70;53.70
59975;DHT22;62136;-35.664;-63.766;2023-04-22T04:18:29;20.70;53.60
59975;DHT22;62136;-35.664;-63.766;2023-04-22T04:20:56;20.70;53.60
59975;DHT22;62136;-35.664;-63.766;2023-04-22T04:23:23;20.70;53.60
59975;DHT22;62136;-35.664;-63.766;2023-04-22T04:25:50;20.70;53.70
59975;DHT22;62136;-35.664;-63.766;2023-04-22T04:28:18;20.60;53.60
59975;DHT22;62136;-35.664;-63.766;2023-04-22T04:30:45;20.60;53.60
59975;DHT22;62136;-35.664;-63.766;2023-04-22T04:33:13;20.60;53.60
59975;DHT22;62136;-35.664;-63.766;2023-04-22T04:35:42;20.60;53.60
59975;DHT22;62136;-35.664;-63.766;2023-04-22T04:38:10;20.60;53.60
59975;DHT22;62136;-35.664;-63.766;2023-04-22T04:40:38;20.60;53.70
59975;DHT22;62136;-35.664;-63.766;2023-04-22T04:43:05;20.60;53.70
59975;DHT22;62136;-35.664;-63.766;2023-04-22T04:45:34;20.60;53.60
59975;DHT22;62136;-35.664;-63.766;2023-04-22T04:48:05;20.60;53.70
59975;DHT22;62136;-35.664;-63.766;2023-04-22T04:50:35;20.60;53.60
59975;DHT22;62136;-35.664;-63.766;2023-04-22T04:53:02;20.60;53.70
59975;DHT22;62136;-35.664;-63.766;2023-04-22T04:55:29;20.50;53.70
59975;DHT22;62136;-35.664;-63.766;2023-04-22T04:57:56;20.50;53.60
59975;DHT22;62136;-35.664;-63.766;2023-04-22T05:00:23;20.50;53.70
59975;DHT22;62136;-35.664;-63.766;2023-04-22T05:02:50;20.50;53.70
59975;DHT22;62136;-35.664;-63.766;2023-04-22T05:05:17;20.50;53.70
59975;DHT22;62136;-35.664;-63.766;2023-04-22T05:07:45;20.50;53.70
59975;DHT22;62136;-35.664;-63.766;2023-04-22T05:10:12;20.50;53.70
59975;DHT22;62136;-35.664;-63.766;2023-04-22T05:12:39;20.40;53.60
59975;DHT22;62136;-35.664;-63.766;2023-04-22T05:15:07;20.40;53.60
59975;DHT22;62136;-35.664;-63.766;2023-04-22T05:17:34;20.40;53.60
59975;DHT22;62136;-35.664;-63.766;2023-04-22T05:20:02;20.40;53.70
59975;DHT22;62136;-35.664;-63.766;2023-04-22T05:22:29;20.40;53.70
59975;DHT22;62136;-35.664;-63.766;2023-04-22T05:24:56;20.40;53.60
59975;DHT22;62136;-35.664;-63.766;2023-04-22T05:27:23;20.40;53.60
59975;DHT22;62136;-35.664;-63.766;2023-04-22T05:29:50;20.40;53.60
59975;DHT22;62136;-35.664;-63.766;2023-04-22T05:32:17;20.40;53.60
59975;DHT22;62136;-35.664;-63.766;2023-04-22T05:34:44;20.30;53.60
59975;DHT22;62136;-35.664;-63.766;2023-04-22T05:37:11;20.30;53.60
59975;DHT22;62136;-35.664;-63.766;2023-04-22T05:39:39;20.30;53.70
59975;DHT22;62136;-35.664;-63.766;2023-04-22T05:42:06;20.30;53.50
59975;DHT22;62136;-35.664;-63.766;2023-04-22T05:44:34;20.30;53.50
59975;DHT22;62136;-35.664;-63.766;2023-04-22T05:47:01;20.30;53.50
59975;DHT22;62136;-35.664;-63.766;2023-04-22T05:49:28;20.30;53.50
59975;DHT22;62136;-35.664;-63.766;2023-04-22T05:51:55;20.30;53.50
59975;DHT22;62136;-35.664;-63.766;2023-04-22T05:54:22;20.30;53.60
59975;DHT22;62136;-35.664;-63.766;2023-04-22T05:56:49;20.20;53.40
59975;DHT22;62136;-35.664;-63.766;2023-04-22T05:59:16;20.20;53.40
59975;DHT22;62136;-35.664;-63.766;2023-04-22T06:01:43;20.20;53.40
59975;DHT22;62136;-35.664;-63.766;2023-04-22T06:04:10;20.20;53.50
59975;DHT22;62136;-35.664;-63.766;2023-04-22T06:06:37;20.20;53.50
59975;DHT22;62136;-35.664;-63.766;2023-04-22T06:09:05;20.20;53.40
59975;DHT22;62136;-35.664;-63.766;2023-04-22T06:11:33;20.20;53.50
59975;DHT22;62136;-35.664;-63.766;2023-04-22T06:14:00;20.20;53.40
59975;DHT22;62136;-35.664;-63.766;2023-04-22T06:16:27;20.20;53.50
59975;DHT22;62136;-35.664;-63.766;2023-04-22T06:18:54;20.20;53.40
59975;DHT22;62136;-35.664;-63.766;2023-04-22T06:21:21;20.20;53.40
59975;DHT22;62136;-35.664;-63.766;2023-04-22T06:23:48;20.20;53.40
59975;DHT22;62136;-35.664;-63.766;2023-04-22T06:26:15;20.10;53.40
59975;DHT22;62136;-35.664;-63.766;2023-04-22T06:28:42;20.10;53.40
59975;DHT22;62136;-35.664;-63.766;2023-04-22T06:31:09;20.10;53.40
59975;DHT22;62136;-35.664;-63.766;2023-04-22T06:33:37;20.10;53.40
59975;DHT22;62136;-35.664;-63.766;2023-04-22T06:36:04;20.10;53.50
59975;DHT22;62136;-35.664;-63.766;2023-04-22T06:38:31;20.10;53.40
59975;DHT22;62136;-35.664;-63.766;2023-04-22T06:40:58;20.10;53.50
59975;DHT22;62136;-35.664;-63.766;2023-04-22T06:43:28;20.10;53.40
59975;DHT22;62136;-35.664;-63.766;2023-04-22T06:45:55;20.00;53.40
59975;DHT22;62136;-35.664;-63.766;2023-04-22T06:48:22;20.00;53.40
59975;DHT22;62136;-35.664;-63.766;2023-04-22T06:50:49;20.10;53.40
59975;DHT22;62136;-35.664;-63.766;2023-04-22T06:53:16;20.00;53.40
59975;DHT22;62136;-35.664;-63.766;2023-04-22T06:55:43;20.00;53.40
59975;DHT22;62136;-35.664;-63.766;2023-04-22T06:58:10;20.00;53.40
59975;DHT22;62136;-35.664;-63.766;2023-04-22T07:00:37;20.00;53.40
59975;DHT22;62136;-35.664;-63.766;2023-04-22T07:03:04;20.00;53.40
59975;DHT22;62136;-35.664;-63.766;2023-04-22T07:05:32;20.00;53.40
59975;DHT22;62136;-35.664;-63.766;2023-04-22T07:07:59;20.00;53.40
59975;DHT22;62136;-35.664;-63.766;2023-04-22T07:10:26;20.00;53.40
59975;DHT22;62136;-35.664;-63.766;2023-04-22T07:12:53;20.00;53.40
59975;DHT22;62136;-35.664;-63.766;2023-04-22T07:15:20;20.00;53.40
59975;DHT22;62136;-35.664;-63.766;2023-04-22T07:17:47;20.00;53.50
59975;DHT22;62136;-35.664;-63.766;2023-04-22T07:20:14;20.00;53.50
59975;DHT22;62136;-35.664;-63.766;2023-04-22T07:22:42;19.90;53.40
59975;DHT22;62136;-35.664;-63.766;2023-04-22T07:25:09;20.00;53.50
59975;DHT22;62136;-35.664;-63.766;2023-04-22T07:27:36;20.00;53.50
59975;DHT22;62136;-35.664;-63.766;2023-04-22T07:30:04;19.90;53.60
59975;DHT22;62136;-35.664;-63.766;2023-04-22T07:32:32;19.90;53.40
59975;DHT22;62136;-35.664;-63.766;2023-04-22T07:34:59;19.90;53.50
59975;DHT22;62136;-35.664;-63.766;2023-04-22T07:37:26;19.90;53.50
59975;DHT22;62136;-35.664;-63.766;2023-04-22T07:39:53;19.90;53.40
59975;DHT22;62136;-35.664;-63.766;2023-04-22T07:42:20;19.90;53.50
59975;DHT22;62136;-35.664;-63.766;2023-04-22T07:44:47;19.90;53.50
59975;DHT22;62136;-35.664;-63.766;2023-04-22T07:47:14;19.90;53.50
59975;DHT22;62136;-35.664;-63.766;2023-04-22T07:49:41;19.80;53.50
59975;DHT22;62136;-35.664;-63.766;2023-04-22T07:52:09;19.80;53.50
59975;DHT22;62136;-35.664;-63.766;2023-04-22T07:54:36;19.80;53.90
59975;DHT22;62136;-35.664;-63.766;2023-04-22T07:57:03;19.80;53.50
59975;DHT22;62136;-35.664;-63.766;2023-04-22T07:59:30;19.80;53.50
59975;DHT22;62136;-35.664;-63.766;2023-04-22T08:01:57;19.80;53.50
59975;DHT22;62136;-35.664;-63.766;2023-04-22T08:04:24;19.80;53.50
59975;DHT22;62136;-35.664;-63.766;2023-04-22T08:06:51;19.80;53.60
59975;DHT22;62136;-35.664;-63.766;2023-04-22T08:09:18;19.80;53.50
59975;DHT22;62136;-35.664;-63.766;2023-04-22T08:11:45;19.80;53.50
59975;DHT22;62136;-35.664;-63.766;2023-04-22T08:14:12;19.80;53.50
59975;DHT22;62136;-35.664;-63.766;2023-04-22T08:16:40;19.70;53.50
59975;DHT22;62136;-35.664;-63.766;2023-04-22T08:19:07;19.80;53.60
59975;DHT22;62136;-35.664;-63.766;2023-04-22T08:21:34;19.70;53.50
59975;DHT22;62136;-35.664;-63.766;2023-04-22T08:24:02;19.70;53.50
59975;DHT22;62136;-35.664;-63.766;2023-04-22T08:26:29;19.70;53.50
59975;DHT22;62136;-35.664;-63.766;2023-04-22T08:28:57;19.70;53.50
59975;DHT22;62136;-35.664;-63.766;2023-04-22T08:31:25;19.70;53.50
59975;DHT22;62136;-35.664;-63.766;2023-04-22T08:33:52;19.70;53.50
59975;DHT22;62136;-35.664;-63.766;2023-04-22T08:36:19;19.70;53.50
59975;DHT22;62136;-35.664;-63.766;2023-04-22T08:38:48;19.70;53.50
59975;DHT22;62136;-35.664;-63.766;2023-04-22T08:41:17;19.60;53.40
59975;DHT22;62136;-35.664;-63.766;2023-04-22T08:43:45;19.70;53.50
59975;DHT22;62136;-35.664;-63.766;2023-04-22T08:46:13;19.60;53.40
59975;DHT22;62136;-35.664;-63.766;2023-04-22T08:48:43;19.60;53.40
59975;DHT22;62136;-35.664;-63.766;2023-04-22T08:51:11;19.60;53.40
59975;DHT22;62136;-35.664;-63.766;2023-04-22T08:53:39;19.60;53.50
59975;DHT22;62136;-35.664;-63.766;2023-04-22T08:56:06;19.60;53.40
59975;DHT22;62136;-35.664;-63.766;2023-04-22T08:58:33;19.60;53.40
59975;DHT22;62136;-35.664;-63.766;2023-04-22T09:01:01;19.60;53.40
59975;DHT22;62136;-35.664;-63.766;2023-04-22T09:03:29;19.60;53.40
59975;DHT22;62136;-35.664;-63.766;2023-04-22T09:05:58;19.60;53.40
59975;DHT22;62136;-35.664;-63.766;2023-04-22T09:08:28;19.60;53.40
59975;DHT22;62136;-35.664;-63.766;2023-04-22T09:10:57;19.50;53.40
59975;DHT22;62136;-35.664;-63.766;2023-04-22T09:13:25;19.60;53.40
59975;DHT22;62136;-35.664;-63.766;2023-04-22T09:15:53;19.50;53.40
59975;DHT22;62136;-35.664;-63.766;2023-04-22T09:18:20;19.50;53.80
59975;DHT22;62136;-35.664;-63.766;2023-04-22T09:20:48;19.50;53.40
59975;DHT22;62136;-35.664;-63.766;2023-04-22T09:23:15;19.50;53.30
59975;DHT22;62136;-35.664;-63.766;2023-04-22T09:25:44;19.50;53.30
59975;DHT22;62136;-35.664;-63.766;2023-04-22T09:28:16;19.50;53.40
59975;DHT22;62136;-35.664;-63.766;2023-04-22T09:30:44;19.40;53.40
59975;DHT22;62136;-35.664;-63.766;2023-04-22T09:33:12;19.50;53.30
59975;DHT22;62136;-35.664;-63.766;2023-04-22T09:35:40;19.40;53.30
59975;DHT22;62136;-35.664;-63.766;2023-04-22T09:38:10;19.40;53.30
59975;DHT22;62136;-35.664;-63.766;2023-04-22T09:40:41;19.40;53.60
59975;DHT22;62136;-35.664;-63.766;2023-04-22T09:43:09;19.40;53.20
59975;DHT22;62136;-35.664;-63.766;2023-04-22T09:45:41;19.40;53.20
59975;DHT22;62136;-35.664;-63.766;2023-04-22T09:48:11;19.40;53.20
59975;DHT22;62136;-35.664;-63.766;2023-04-22T09:50:43;19.40;53.30
59975;DHT22;62136;-35.664;-63.766;2023-04-22T09:53:13;19.40;53.20
59975;DHT22;62136;-35.664;-63.766;2023-04-22T09:55:43;19.40;53.20
59975;DHT22;62136;-35.664;-63.766;2023-04-22T09:58:12;19.40;53.20
59975;DHT22;62136;-35.664;-63.766;2023-04-22T10:00:47;19.30;53.10
59975;DHT22;62136;-35.664;-63.766;2023-04-22T10:03:14;19.40;53.20
59975;DHT22;62136;-35.664;-63.766;2023-04-22T10:05:42;19.30;53.10
59975;DHT22;62136;-35.664;-63.766;2023-04-22T10:08:12;19.30;53.10
59975;DHT22;62136;-35.664;-63.766;2023-04-22T10:10:40;19.40;53.10
59975;DHT22;62136;-35.664;-63.766;2023-04-22T10:13:08;19.30;53.10
59975;DHT22;62136;-35.664;-63.766;2023-04-22T10:15:54;19.30;53.10
59975;DHT22;62136;-35.664;-63.766;2023-04-22T10:18:25;19.30;53.20
59975;DHT22;62136;-35.664;-63.766;2023-04-22T10:20:55;19.30;53.10
59975;DHT22;62136;-35.664;-63.766;2023-04-22T10:23:23;19.30;53.10
59975;DHT22;62136;-35.664;-63.766;2023-04-22T10:25:54;19.30;53.10
59975;DHT22;62136;-35.664;-63.766;2023-04-22T10:28:23;19.30;53.10
59975;DHT22;62136;-35.664;-63.766;2023-04-22T10:30:53;19.20;53.10
59975;DHT22;62136;-35.664;-63.766;2023-04-22T10:36:18;19.30;53.10
59975;DHT22;62136;-35.664;-63.766;2023-04-22T10:41:29;19.20;53.20
59975;DHT22;62136;-35.664;-63.766;2023-04-22T10:43:56;19.20;53.10
59975;DHT22;62136;-35.664;-63.766;2023-04-22T10:48:58;19.20;53.20
59975;DHT22;62136;-35.664;-63.766;2023-04-22T10:54:06;19.20;53.20
59975;DHT22;62136;-35.664;-63.766;2023-04-22T10:56:34;19.20;53.20
59975;DHT22;62136;-35.664;-63.766;2023-04-22T10:59:15;19.20;53.20
59975;DHT22;62136;-35.664;-63.766;2023-04-22T11:01:43;19.20;53.30
59975;DHT22;62136;-35.664;-63.766;2023-04-22T11:04:28;19.10;53.20
59975;DHT22;62136;-35.664;-63.766;2023-04-22T11:10:07;19.20;53.30
59975;DHT22;62136;-35.664;-63.766;2023-04-22T11:12:42;19.10;53.20
59975;DHT22;62136;-35.664;-63.766;2023-04-22T11:15:18;19.20;53.40
59975;DHT22;62136;-35.664;-63.766;2023-04-22T11:17:50;19.10;53.30
59975;DHT22;62136;-35.664;-63.766;2023-04-22T11:20:18;19.10;53.20
59975;DHT22;62136;-35.664;-63.766;2023-04-22T11:22:47;19.10;53.30
59975;DHT22;62136;-35.664;-63.766;2023-04-22T11:25:14;19.10;53.30
59975;DHT22;62136;-35.664;-63.766;2023-04-22T11:27:42;19.20;53.30
59975;DHT22;62136;-35.664;-63.766;2023-04-22T11:30:15;19.20;53.30
59975;DHT22;62136;-35.664;-63.766;2023-04-22T11:32:53;19.20;53.30
59975;DHT22;62136;-35.664;-63.766;2023-04-22T11:35:26;19.10;53.30
59975;DHT22;62136;-35.664;-63.766;2023-04-22T11:38:03;19.20;52.90
59975;DHT22;62136;-35.664;-63.766;2023-04-22T11:40:40;19.20;53.40
59975;DHT22;62136;-35.664;-63.766;2023-04-22T11:43:09;19.20;53.40
59975;DHT22;62136;-35.664;-63.766;2023-04-22T11:45:38;19.20;53.30
59975;DHT22;62136;-35.664;-63.766;2023-04-22T11:48:07;19.20;53.40
59975;DHT22;62136;-35.664;-63.766;2023-04-22T11:50:41;19.20;53.40
59975;DHT22;62136;-35.664;-63.766;2023-04-22T11:53:18;19.20;53.40
59975;DHT22;62136;-35.664;-63.766;2023-04-22T11:55:49;19.30;53.40
59975;DHT22;62136;-35.664;-63.766;2023-04-22T11:58:24;19.30;53.40
59975;DHT22;62136;-35.664;-63.766;2023-04-22T12:00:53;19.30;53.40
59975;DHT22;62136;-35.664;-63.766;2023-04-22T12:03:23;19.30;53.40
59975;DHT22;62136;-35.664;-63.766;2023-04-22T12:05:59;19.30;53.30
59975;DHT22;62136;-35.664;-63.766;2023-04-22T12:08:36;19.30;53.30
59975;DHT22;62136;-35.664;-63.766;2023-04-22T12:11:11;19.30;53.30
59975;DHT22;62136;-35.664;-63.766;2023-04-22T12:16:17;19.30;53.40
59975;DHT22;62136;-35.664;-63.766;2023-04-22T12:18:48;19.30;53.40
59975;DHT22;62136;-35.664;-63.766;2023-04-22T12:21:21;19.40;53.50
59975;DHT22;62136;-35.664;-63.766;2023-04-22T12:23:56;19.40;53.50
59975;DHT22;62136;-35.664;-63.766;2023-04-22T12:26:25;19.40;53.50
59975;DHT22;62136;-35.664;-63.766;2023-04-22T12:28:54;19.40;53.50
59975;DHT22;62136;-35.664;-63.766;2023-04-22T12:31:23;19.40;53.50
59975;DHT22;62136;-35.664;-63.766;2023-04-22T12:33:51;19.40;53.60
59975;DHT22;62136;-35.664;-63.766;2023-04-22T12:36:19;19.50;53.60
59975;DHT22;62136;-35.664;-63.766;2023-04-22T12:38:47;19.50;53.50
59975;DHT22;62136;-35.664;-63.766;2023-04-22T12:41:14;19.50;53.50
59975;DHT22;62136;-35.664;-63.766;2023-04-22T12:43:44;19.50;53.50
59975;DHT22;62136;-35.664;-63.766;2023-04-22T12:46:11;19.60;53.60
59975;DHT22;62136;-35.664;-63.766;2023-04-22T12:48:38;19.60;53.50
59975;DHT22;62136;-35.664;-63.766;2023-04-22T12:51:06;19.60;53.50
59975;DHT22;62136;-35.664;-63.766;2023-04-22T12:53:33;19.70;53.50
59975;DHT22;62136;-35.664;-63.766;2023-04-22T12:56:00;19.70;53.50
59975;DHT22;62136;-35.664;-63.766;2023-04-22T12:58:27;19.70;53.40
59975;DHT22;62136;-35.664;-63.766;2023-04-22T13:00:54;19.70;53.40
59975;DHT22;62136;-35.664;-63.766;2023-04-22T13:03:21;19.70;53.40
59975;DHT22;62136;-35.664;-63.766;2023-04-22T13:05:48;19.80;53.40
59975;DHT22;62136;-35.664;-63.766;2023-04-22T13:08:16;19.80;53.30
59975;DHT22;62136;-35.664;-63.766;2023-04-22T13:10:43;19.80;53.30
59975;DHT22;62136;-35.664;-63.766;2023-04-22T13:13:10;19.80;53.30
59975;DHT22;62136;-35.664;-63.766;2023-04-22T13:15:37;19.80;53.30
59975;DHT22;62136;-35.664;-63.766;2023-04-22T13:18:04;19.90;53.30
59975;DHT22;62136;-35.664;-63.766;2023-04-22T13:20:31;19.90;53.30
59975;DHT22;62136;-35.664;-63.766;2023-04-22T13:22:58;19.90;53.40
59975;DHT22;62136;-35.664;-63.766;2023-04-22T13:25:27;19.90;53.30
59975;DHT22;62136;-35.664;-63.766;2023-04-22T13:27:57;20.00;53.30
59975;DHT22;62136;-35.664;-63.766;2023-04-22T13:32:55;20.00;53.30
59975;DHT22;62136;-35.664;-63.766;2023-04-22T13:35:22;20.00;53.30
59975;DHT22;62136;-35.664;-63.766;2023-04-22T13:37:49;20.10;53.30
59975;DHT22;62136;-35.664;-63.766;2023-04-22T13:40:16;20.10;53.20
59975;DHT22;62136;-35.664;-63.766;2023-04-22T13:42:44;20.10;53.20
59975;DHT22;62136;-35.664;-63.766;2023-04-22T13:45:11;20.10;53.10
59975;DHT22;62136;-35.664;-63.766;2023-04-22T13:47:38;20.20;53.10
59975;DHT22;62136;-35.664;-63.766;2023-04-22T13:50:06;20.20;53.10
59975;DHT22;62136;-35.664;-63.766;2023-04-22T13:52:33;20.20;53.00
59975;DHT22;62136;-35.664;-63.766;2023-04-22T13:55:02;20.20;53.10
59975;DHT22;62136;-35.664;-63.766;2023-04-22T13:57:29;20.30;53.00
59975;DHT22;62136;-35.664;-63.766;2023-04-22T13:59:56;20.30;53.00
59975;DHT22;62136;-35.664;-63.766;2023-04-22T14:02:23;20.30;53.00
59975;DHT22;62136;-35.664;-63.766;2023-04-22T14:04:51;20.30;52.90
59975;DHT22;62136;-35.664;-63.766;2023-04-22T14:07:18;20.30;52.90
59975;DHT22;62136;-35.664;-63.766;2023-04-22T14:09:45;20.40;52.90
59975;DHT22;62136;-35.664;-63.766;2023-04-22T14:12:12;20.40;52.90
59975;DHT22;62136;-35.664;-63.766;2023-04-22T14:14:39;20.40;52.90
59975;DHT22;62136;-35.664;-63.766;2023-04-22T14:17:06;20.40;52.80
59975;DHT22;62136;-35.664;-63.766;2023-04-22T14:19:33;20.50;52.80
59975;DHT22;62136;-35.664;-63.766;2023-04-22T14:22:04;20.50;52.80
59975;DHT22;62136;-35.664;-63.766;2023-04-22T14:24:32;20.50;52.80
59975;DHT22;62136;-35.664;-63.766;2023-04-22T14:26:59;20.60;52.70
59975;DHT22;62136;-35.664;-63.766;2023-04-22T14:29:29;20.60;52.70
59975;DHT22;62136;-35.664;-63.766;2023-04-22T14:31:57;20.60;52.70
59975;DHT22;62136;-35.664;-63.766;2023-04-22T14:34:25;20.60;52.60
59975;DHT22;62136;-35.664;-63.766;2023-04-22T14:36:52;20.60;52.60
59975;DHT22;62136;-35.664;-63.766;2023-04-22T14:39:19;20.60;52.60
59975;DHT22;62136;-35.664;-63.766;2023-04-22T14:41:46;20.60;52.50
59975;DHT22;62136;-35.664;-63.766;2023-04-22T14:44:14;20.70;52.50
59975;DHT22;62136;-35.664;-63.766;2023-04-22T14:46:41;20.70;52.40
59975;DHT22;62136;-35.664;-63.766;2023-04-22T14:49:08;20.70;52.40
59975;DHT22;62136;-35.664;-63.766;2023-04-22T14:51:35;20.70;52.30
59975;DHT22;62136;-35.664;-63.766;2023-04-22T14:54:02;20.80;52.40
59975;DHT22;62136;-35.664;-63.766;2023-04-22T14:56:29;20.80;52.30
59975;DHT22;62136;-35.664;-63.766;2023-04-22T14:58:56;20.80;52.30
59975;DHT22;62136;-35.664;-63.766;2023-04-22T15:01:33;20.80;52.30
59975;DHT22;62136;-35.664;-63.766;2023-04-22T15:04:18;20.80;52.20
59975;DHT22;62136;-35.664;-63.766;2023-04-22T15:06:46;20.90;52.30
59975;DHT22;62136;-35.664;-63.766;2023-04-22T15:09:13;20.90;52.20
59975;DHT22;62136;-35.664;-63.766;2023-04-22T15:11:40;20.90;52.30